sensor_id;sensor_type;location;lat;lon;timestamp;P1;durP1;ratioP1;P2;durP2;ratioP2
71207;SDS011;58938;49.868;8.646;2023-05-10T00:00:07;3.10;;;1.67;;
71207;SDS011;58938;49.868;8.646;2023-05-10T00:02:34;3.80;;;2.00;;
71207;SDS011;58938;49.868;8.646;2023-05-10T00:05:00;3.92;;;1.73;;
71207;SDS011;58938;49.868;8.646;2023-05-10T00:07:26;3.20;;;1.70;;
71207;SDS011;58938;49.868;8.646;2023-05-10T00:09:52;3.58;;;1.58;;
71207;SDS011;58938;49.868;8.646;2023-05-10T00:12:18;3.15;;;1.77;;
71207;SDS011;58938;49.868;8.646;2023-05-10T00:14:44;3.65;;;1.60;;
71207;SDS011;58938;49.868;8.646;2023-05-10T00:17:10;3.85;;;1.95;;
71207;SDS011;58938;49.868;8.646;2023-05-10T00:19:36;3.10;;;1.77;;
71207;SDS011;58938;49.868;8.646;2023-05-10T00:22:02;4.15;;;1.65;;
71207;SDS011;58938;49.868;8.646;2023-05-10T00:24:28;4.85;;;1.40;;
71207;SDS011;58938;49.868;8.646;2023-05-10T00:26:54;3.80;;;1.80;;
71207;SDS011;58938;49.868;8.646;2023-05-10T00:29:20;4.07;;;1.83;;
71207;SDS011;58938;49.868;8.646;2023-05-10T00:31:46;3.58;;;1.92;;
71207;SDS011;58938;49.868;8.646;2023-05-10T00:34:12;3.83;;;1.80;;
71207;SDS011;58938;49.868;8.646;2023-05-10T00:36:38;4.10;;;2.10;;
71207;SDS011;58938;49.868;8.646;2023-05-10T00:39:05;3.45;;;1.65;;
71207;SDS011;58938;49.868;8.646;2023-05-10T00:41:31;3.90;;;1.80;;
71207;SDS011;58938;49.868;8.646;2023-05-10T00:43:57;3.35;;;1.88;;
71207;SDS011;58938;49.868;8.646;2023-05-10T00:46:23;3.92;;;2.47;;
71207;SDS011;58938;49.868;8.646;2023-05-10T00:48:50;3.97;;;1.90;;
71207;SDS011;58938;49.868;8.646;2023-05-10T00:51:16;4.88;;;2.05;;
71207;SDS011;58938;49.868;8.646;2023-05-10T00:53:42;5.47;;;2.35;;
71207;SDS011;58938;49.868;8.646;2023-05-10T00:56:09;3.70;;;1.85;;
71207;SDS011;58938;49.868;8.646;2023-05-10T00:58:35;4.57;;;2.35;;
71207;SDS011;58938;49.868;8.646;2023-05-10T01:01:01;4.43;;;1.90;;
71207;SDS011;58938;49.868;8.646;2023-05-10T01:03:27;3.85;;;2.35;;
71207;SDS011;58938;49.868;8.646;2023-05-10T01:05:53;5.80;;;2.25;;
71207;SDS011;58938;49.868;8.646;2023-05-10T01:08:20;5.95;;;2.22;;
71207;SDS011;58938;49.868;8.646;2023-05-10T01:10:46;5.25;;;2.40;;
71207;SDS011;58938;49.868;8.646;2023-05-10T01:13:14;3.90;;;2.07;;
71207;SDS011;58938;49.868;8.646;2023-05-10T01:15:44;4.22;;;2.10;;
71207;SDS011;58938;49.868;8.646;2023-05-10T01:18:11;5.22;;;2.67;;
71207;SDS011;58938;49.868;8.646;2023-05-10T01:20:39;4.10;;;2.10;;
71207;SDS011;58938;49.868;8.646;2023-05-10T01:25:49;4.10;;;1.93;;
71207;SDS011;58938;49.868;8.646;2023-05-10T01:28:38;7.03;;;2.17;;
71207;SDS011;58938;49.868;8.646;2023-05-10T01:36:41;3.95;;;2.28;;
71207;SDS011;58938;49.868;8.646;2023-05-10T01:39:04;4.07;;;2.23;;
71207;SDS011;58938;49.868;8.646;2023-05-10T01:44:51;4.88;;;2.85;;
71207;SDS011;58938;49.868;8.646;2023-05-10T01:47:11;4.10;;;1.70;;
71207;SDS011;58938;49.868;8.646;2023-05-10T01:49:39;4.18;;;2.35;;
71207;SDS011;58938;49.868;8.646;2023-05-10T01:52:08;5.97;;;2.83;;
71207;SDS011;58938;49.868;8.646;2023-05-10T01:54:35;4.90;;;3.00;;
71207;SDS011;58938;49.868;8.646;2023-05-10T01:57:02;4.72;;;2.70;;
71207;SDS011;58938;49.868;8.646;2023-05-10T01:59:30;6.18;;;2.70;;
71207;SDS011;58938;49.868;8.646;2023-05-10T02:01:57;5.18;;;2.88;;
71207;SDS011;58938;49.868;8.646;2023-05-10T02:04:24;4.73;;;2.50;;
71207;SDS011;58938;49.868;8.646;2023-05-10T02:06:51;4.68;;;2.75;;
71207;SDS011;58938;49.868;8.646;2023-05-10T02:09:18;4.47;;;2.08;;
71207;SDS011;58938;49.868;8.646;2023-05-10T02:11:45;5.55;;;3.10;;
71207;SDS011;58938;49.868;8.646;2023-05-10T02:14:13;4.72;;;2.65;;
71207;SDS011;58938;49.868;8.646;2023-05-10T02:16:40;4.73;;;2.67;;
71207;SDS011;58938;49.868;8.646;2023-05-10T02:19:06;6.85;;;2.72;;
71207;SDS011;58938;49.868;8.646;2023-05-10T02:21:33;5.95;;;3.65;;
71207;SDS011;58938;49.868;8.646;2023-05-10T02:24:00;5.15;;;2.85;;
71207;SDS011;58938;49.868;8.646;2023-05-10T02:26:28;5.30;;;3.10;;
71207;SDS011;58938;49.868;8.646;2023-05-10T02:28:54;5.23;;;2.83;;
71207;SDS011;58938;49.868;8.646;2023-05-10T02:31:23;8.75;;;3.00;;
71207;SDS011;58938;49.868;8.646;2023-05-10T02:33:49;6.28;;;3.35;;
71207;SDS011;58938;49.868;8.646;2023-05-10T02:36:16;5.90;;;3.00;;
71207;SDS011;58938;49.868;8.646;2023-05-10T02:38:42;5.38;;;3.25;;
71207;SDS011;58938;49.868;8.646;2023-05-10T02:41:09;6.17;;;3.07;;
71207;SDS011;58938;49.868;8.646;2023-05-10T02:43:35;5.38;;;3.38;;
71207;SDS011;58938;49.868;8.646;2023-05-10T02:46:03;8.60;;;4.05;;
71207;SDS011;58938;49.868;8.646;2023-05-10T02:48:29;8.15;;;3.70;;
71207;SDS011;58938;49.868;8.646;2023-05-10T02:50:56;6.93;;;3.85;;
71207;SDS011;58938;49.868;8.646;2023-05-10T02:53:22;7.37;;;3.40;;
71207;SDS011;58938;49.868;8.646;2023-05-10T02:55:50;5.88;;;3.22;;
71207;SDS011;58938;49.868;8.646;2023-05-10T02:58:17;5.72;;;3.60;;
71207;SDS011;58938;49.868;8.646;2023-05-10T03:00:46;8.00;;;3.30;;
71207;SDS011;58938;49.868;8.646;2023-05-10T03:03:12;8.20;;;3.55;;
71207;SDS011;58938;49.868;8.646;2023-05-10T03:05:38;6.30;;;3.07;;
71207;SDS011;58938;49.868;8.646;2023-05-10T03:08:04;6.38;;;4.00;;
71207;SDS011;58938;49.868;8.646;2023-05-10T03:10:31;6.72;;;3.28;;
71207;SDS011;58938;49.868;8.646;2023-05-10T03:13:10;6.68;;;3.72;;
71207;SDS011;58938;49.868;8.646;2023-05-10T03:18:23;6.13;;;3.90;;
71207;SDS011;58938;49.868;8.646;2023-05-10T03:20:54;7.97;;;3.80;;
71207;SDS011;58938;49.868;8.646;2023-05-10T03:23:22;5.53;;;3.15;;
71207;SDS011;58938;49.868;8.646;2023-05-10T03:25:52;6.07;;;3.50;;
71207;SDS011;58938;49.868;8.646;2023-05-10T03:28:19;6.03;;;3.67;;
71207;SDS011;58938;49.868;8.646;2023-05-10T03:30:46;5.85;;;3.17;;
71207;SDS011;58938;49.868;8.646;2023-05-10T03:33:12;6.75;;;4.00;;
71207;SDS011;58938;49.868;8.646;2023-05-10T03:35:39;7.57;;;3.65;;
71207;SDS011;58938;49.868;8.646;2023-05-10T03:38:05;7.00;;;3.40;;
71207;SDS011;58938;49.868;8.646;2023-05-10T03:40:31;5.43;;;3.30;;
71207;SDS011;58938;49.868;8.646;2023-05-10T03:43:00;5.80;;;3.10;;
71207;SDS011;58938;49.868;8.646;2023-05-10T03:45:26;6.07;;;3.58;;
71207;SDS011;58938;49.868;8.646;2023-05-10T03:47:52;7.03;;;3.75;;
71207;SDS011;58938;49.868;8.646;2023-05-10T03:50:19;6.45;;;3.83;;
71207;SDS011;58938;49.868;8.646;2023-05-10T03:52:44;6.53;;;3.60;;
71207;SDS011;58938;49.868;8.646;2023-05-10T03:55:10;6.65;;;3.40;;
71207;SDS011;58938;49.868;8.646;2023-05-10T03:57:36;6.78;;;3.25;;
71207;SDS011;58938;49.868;8.646;2023-05-10T04:00:03;6.00;;;3.80;;
71207;SDS011;58938;49.868;8.646;2023-05-10T04:02:29;6.28;;;3.70;;
71207;SDS011;58938;49.868;8.646;2023-05-10T04:04:55;6.00;;;3.53;;
71207;SDS011;58938;49.868;8.646;2023-05-10T04:07:21;7.68;;;4.28;;
71207;SDS011;58938;49.868;8.646;2023-05-10T04:09:47;6.88;;;4.05;;
71207;SDS011;58938;49.868;8.646;2023-05-10T04:12:13;6.45;;;3.60;;
71207;SDS011;58938;49.868;8.646;2023-05-10T04:14:39;6.83;;;4.10;;
71207;SDS011;58938;49.868;8.646;2023-05-10T04:17:08;6.18;;;3.85;;
71207;SDS011;58938;49.868;8.646;2023-05-10T04:19:35;7.05;;;4.68;;
71207;SDS011;58938;49.868;8.646;2023-05-10T04:22:02;9.30;;;3.75;;
71207;SDS011;58938;49.868;8.646;2023-05-10T04:24:28;8.13;;;4.22;;
71207;SDS011;58938;49.868;8.646;2023-05-10T04:26:54;6.87;;;3.67;;
71207;SDS011;58938;49.868;8.646;2023-05-10T04:29:20;8.13;;;4.15;;
71207;SDS011;58938;49.868;8.646;2023-05-10T04:31:46;8.07;;;4.45;;
71207;SDS011;58938;49.868;8.646;2023-05-10T04:34:13;8.07;;;3.95;;
71207;SDS011;58938;49.868;8.646;2023-05-10T04:36:39;11.63;;;4.53;;
71207;SDS011;58938;49.868;8.646;2023-05-10T04:39:05;9.03;;;4.30;;
71207;SDS011;58938;49.868;8.646;2023-05-10T04:41:32;7.15;;;4.30;;
71207;SDS011;58938;49.868;8.646;2023-05-10T04:43:57;9.20;;;4.22;;
71207;SDS011;58938;49.868;8.646;2023-05-10T04:46:23;7.90;;;4.18;;
71207;SDS011;58938;49.868;8.646;2023-05-10T04:48:49;7.87;;;4.60;;
71207;SDS011;58938;49.868;8.646;2023-05-10T04:51:15;7.88;;;4.00;;
71207;SDS011;58938;49.868;8.646;2023-05-10T04:53:41;7.25;;;4.30;;
71207;SDS011;58938;49.868;8.646;2023-05-10T04:56:07;7.57;;;3.92;;
71207;SDS011;58938;49.868;8.646;2023-05-10T04:58:33;9.00;;;5.20;;
71207;SDS011;58938;49.868;8.646;2023-05-10T05:01:06;9.70;;;5.37;;
71207;SDS011;58938;49.868;8.646;2023-05-10T05:03:32;7.60;;;4.78;;
71207;SDS011;58938;49.868;8.646;2023-05-10T05:05:58;8.32;;;4.82;;
71207;SDS011;58938;49.868;8.646;2023-05-10T05:08:24;8.70;;;5.20;;
71207;SDS011;58938;49.868;8.646;2023-05-10T05:10:50;9.03;;;4.77;;
71207;SDS011;58938;49.868;8.646;2023-05-10T05:13:17;16.63;;;6.30;;
71207;SDS011;58938;49.868;8.646;2023-05-10T05:15:43;8.57;;;5.13;;
71207;SDS011;58938;49.868;8.646;2023-05-10T05:18:09;7.75;;;4.80;;
71207;SDS011;58938;49.868;8.646;2023-05-10T05:20:35;8.65;;;4.32;;
71207;SDS011;58938;49.868;8.646;2023-05-10T05:23:01;11.27;;;5.80;;
71207;SDS011;58938;49.868;8.646;2023-05-10T05:25:27;7.15;;;4.32;;
71207;SDS011;58938;49.868;8.646;2023-05-10T05:27:53;8.25;;;4.03;;
71207;SDS011;58938;49.868;8.646;2023-05-10T05:30:19;8.18;;;4.55;;
71207;SDS011;58938;49.868;8.646;2023-05-10T05:32:45;6.10;;;3.53;;
71207;SDS011;58938;49.868;8.646;2023-05-10T05:35:12;8.90;;;4.57;;
71207;SDS011;58938;49.868;8.646;2023-05-10T05:37:38;7.50;;;4.05;;
71207;SDS011;58938;49.868;8.646;2023-05-10T05:40:04;6.88;;;4.22;;
71207;SDS011;58938;49.868;8.646;2023-05-10T05:42:30;7.55;;;4.25;;
71207;SDS011;58938;49.868;8.646;2023-05-10T05:44:57;11.73;;;4.70;;
71207;SDS011;58938;49.868;8.646;2023-05-10T05:47:23;7.18;;;4.55;;
71207;SDS011;58938;49.868;8.646;2023-05-10T05:49:49;7.07;;;4.43;;
71207;SDS011;58938;49.868;8.646;2023-05-10T05:52:15;7.40;;;4.40;;
71207;SDS011;58938;49.868;8.646;2023-05-10T05:54:41;10.27;;;4.65;;
71207;SDS011;58938;49.868;8.646;2023-05-10T05:57:07;9.67;;;4.47;;
71207;SDS011;58938;49.868;8.646;2023-05-10T05:59:33;10.45;;;4.93;;
71207;SDS011;58938;49.868;8.646;2023-05-10T06:01:59;8.32;;;4.72;;
71207;SDS011;58938;49.868;8.646;2023-05-10T06:04:25;8.82;;;4.68;;
71207;SDS011;58938;49.868;8.646;2023-05-10T06:06:51;8.40;;;4.47;;
71207;SDS011;58938;49.868;8.646;2023-05-10T06:09:17;7.88;;;3.75;;
71207;SDS011;58938;49.868;8.646;2023-05-10T06:11:43;13.65;;;5.85;;
71207;SDS011;58938;49.868;8.646;2023-05-10T06:14:09;7.30;;;3.72;;
71207;SDS011;58938;49.868;8.646;2023-05-10T06:16:35;11.93;;;4.95;;
71207;SDS011;58938;49.868;8.646;2023-05-10T06:19:02;7.13;;;4.40;;
71207;SDS011;58938;49.868;8.646;2023-05-10T06:21:28;7.03;;;4.78;;
71207;SDS011;58938;49.868;8.646;2023-05-10T06:23:54;10.43;;;5.28;;
71207;SDS011;58938;49.868;8.646;2023-05-10T06:26:20;9.07;;;4.82;;
71207;SDS011;58938;49.868;8.646;2023-05-10T06:28:46;9.60;;;5.38;;
71207;SDS011;58938;49.868;8.646;2023-05-10T06:31:12;9.40;;;5.20;;
71207;SDS011;58938;49.868;8.646;2023-05-10T06:33:38;9.20;;;5.22;;
71207;SDS011;58938;49.868;8.646;2023-05-10T06:36:05;9.43;;;5.57;;
71207;SDS011;58938;49.868;8.646;2023-05-10T06:38:31;7.63;;;4.85;;
71207;SDS011;58938;49.868;8.646;2023-05-10T06:40:57;12.02;;;5.50;;
71207;SDS011;58938;49.868;8.646;2023-05-10T06:43:23;9.63;;;5.37;;
71207;SDS011;58938;49.868;8.646;2023-05-10T06:45:49;11.02;;;5.10;;
71207;SDS011;58938;49.868;8.646;2023-05-10T06:48:16;8.73;;;5.57;;
71207;SDS011;58938;49.868;8.646;2023-05-10T06:50:42;8.73;;;5.43;;
71207;SDS011;58938;49.868;8.646;2023-05-10T06:53:09;13.27;;;5.68;;
71207;SDS011;58938;49.868;8.646;2023-05-10T06:55:34;8.47;;;5.80;;
71207;SDS011;58938;49.868;8.646;2023-05-10T06:58:00;9.27;;;5.40;;
71207;SDS011;58938;49.868;8.646;2023-05-10T07:00:27;7.47;;;5.07;;
71207;SDS011;58938;49.868;8.646;2023-05-10T07:02:53;10.30;;;5.63;;
71207;SDS011;58938;49.868;8.646;2023-05-10T07:05:19;13.38;;;6.05;;
71207;SDS011;58938;49.868;8.646;2023-05-10T07:07:46;8.83;;;5.93;;
71207;SDS011;58938;49.868;8.646;2023-05-10T07:10:12;9.57;;;5.22;;
71207;SDS011;58938;49.868;8.646;2023-05-10T07:12:38;11.82;;;6.10;;
71207;SDS011;58938;49.868;8.646;2023-05-10T07:15:05;11.52;;;6.07;;
71207;SDS011;58938;49.868;8.646;2023-05-10T07:17:31;8.95;;;5.45;;
71207;SDS011;58938;49.868;8.646;2023-05-10T07:19:58;9.50;;;5.63;;
71207;SDS011;58938;49.868;8.646;2023-05-10T07:22:25;8.68;;;5.45;;
71207;SDS011;58938;49.868;8.646;2023-05-10T07:24:51;11.18;;;5.63;;
71207;SDS011;58938;49.868;8.646;2023-05-10T07:27:17;8.43;;;5.30;;
71207;SDS011;58938;49.868;8.646;2023-05-10T07:29:43;12.13;;;5.20;;
71207;SDS011;58938;49.868;8.646;2023-05-10T07:32:09;7.15;;;4.80;;
71207;SDS011;58938;49.868;8.646;2023-05-10T07:34:34;8.73;;;5.10;;
71207;SDS011;58938;49.868;8.646;2023-05-10T07:37:01;8.75;;;5.18;;
71207;SDS011;58938;49.868;8.646;2023-05-10T07:39:27;10.25;;;5.32;;
71207;SDS011;58938;49.868;8.646;2023-05-10T07:41:55;8.07;;;4.83;;
71207;SDS011;58938;49.868;8.646;2023-05-10T07:44:22;7.13;;;4.20;;
71207;SDS011;58938;49.868;8.646;2023-05-10T07:46:48;8.40;;;5.00;;
71207;SDS011;58938;49.868;8.646;2023-05-10T07:49:14;8.73;;;4.82;;
71207;SDS011;58938;49.868;8.646;2023-05-10T07:51:40;6.90;;;4.60;;
71207;SDS011;58938;49.868;8.646;2023-05-10T07:54:05;6.63;;;3.90;;
71207;SDS011;58938;49.868;8.646;2023-05-10T07:56:32;7.00;;;4.72;;
71207;SDS011;58938;49.868;8.646;2023-05-10T07:58:59;6.75;;;4.20;;
71207;SDS011;58938;49.868;8.646;2023-05-10T08:01:25;14.75;;;4.43;;
71207;SDS011;58938;49.868;8.646;2023-05-10T08:03:51;7.30;;;4.20;;
71207;SDS011;58938;49.868;8.646;2023-05-10T08:06:18;7.07;;;4.45;;
71207;SDS011;58938;49.868;8.646;2023-05-10T08:08:45;8.05;;;3.92;;
71207;SDS011;58938;49.868;8.646;2023-05-10T08:11:14;9.27;;;4.15;;
71207;SDS011;58938;49.868;8.646;2023-05-10T08:13:40;7.60;;;4.05;;
71207;SDS011;58938;49.868;8.646;2023-05-10T08:16:06;6.73;;;3.90;;
71207;SDS011;58938;49.868;8.646;2023-05-10T08:18:32;6.95;;;3.88;;
71207;SDS011;58938;49.868;8.646;2023-05-10T08:20:58;7.15;;;4.00;;
71207;SDS011;58938;49.868;8.646;2023-05-10T08:23:24;7.93;;;3.97;;
71207;SDS011;58938;49.868;8.646;2023-05-10T08:25:50;8.73;;;4.00;;
71207;SDS011;58938;49.868;8.646;2023-05-10T08:28:16;7.47;;;4.35;;
71207;SDS011;58938;49.868;8.646;2023-05-10T08:30:42;6.38;;;3.80;;
71207;SDS011;58938;49.868;8.646;2023-05-10T08:33:08;6.28;;;3.28;;
71207;SDS011;58938;49.868;8.646;2023-05-10T08:35:34;9.70;;;4.37;;
71207;SDS011;58938;49.868;8.646;2023-05-10T08:38:00;7.10;;;4.53;;
71207;SDS011;58938;49.868;8.646;2023-05-10T08:40:26;6.35;;;4.15;;
71207;SDS011;58938;49.868;8.646;2023-05-10T08:42:56;8.20;;;4.47;;
71207;SDS011;58938;49.868;8.646;2023-05-10T08:45:24;5.90;;;3.77;;
71207;SDS011;58938;49.868;8.646;2023-05-10T08:47:50;8.82;;;3.85;;
71207;SDS011;58938;49.868;8.646;2023-05-10T08:50:18;7.70;;;4.45;;
71207;SDS011;58938;49.868;8.646;2023-05-10T08:52:46;9.18;;;4.38;;
71207;SDS011;58938;49.868;8.646;2023-05-10T08:55:13;7.88;;;4.43;;
71207;SDS011;58938;49.868;8.646;2023-05-10T08:57:39;11.33;;;4.27;;
71207;SDS011;58938;49.868;8.646;2023-05-10T09:00:06;8.75;;;4.45;;
71207;SDS011;58938;49.868;8.646;2023-05-10T09:02:32;6.60;;;4.60;;
71207;SDS011;58938;49.868;8.646;2023-05-10T09:04:59;8.25;;;4.22;;
71207;SDS011;58938;49.868;8.646;2023-05-10T09:07:25;7.57;;;4.90;;
71207;SDS011;58938;49.868;8.646;2023-05-10T09:09:51;8.23;;;4.03;;
71207;SDS011;58938;49.868;8.646;2023-05-10T09:12:17;5.97;;;3.60;;
71207;SDS011;58938;49.868;8.646;2023-05-10T09:14:44;5.97;;;3.78;;
71207;SDS011;58938;49.868;8.646;2023-05-10T09:17:10;6.00;;;3.50;;
71207;SDS011;58938;49.868;8.646;2023-05-10T09:19:36;6.65;;;3.65;;
71207;SDS011;58938;49.868;8.646;2023-05-10T09:22:02;6.03;;;2.70;;
71207;SDS011;58938;49.868;8.646;2023-05-10T09:24:29;3.72;;;2.03;;
71207;SDS011;58938;49.868;8.646;2023-05-10T09:26:56;5.18;;;2.60;;
71207;SDS011;58938;49.868;8.646;2023-05-10T09:29:23;7.63;;;2.50;;
71207;SDS011;58938;49.868;8.646;2023-05-10T09:31:50;6.63;;;2.67;;
71207;SDS011;58938;49.868;8.646;2023-05-10T09:34:19;6.10;;;2.67;;
71207;SDS011;58938;49.868;8.646;2023-05-10T09:36:52;5.53;;;2.20;;
71207;SDS011;58938;49.868;8.646;2023-05-10T09:39:20;8.73;;;4.55;;
71207;SDS011;58938;49.868;8.646;2023-05-10T09:41:46;4.10;;;2.13;;
71207;SDS011;58938;49.868;8.646;2023-05-10T09:44:16;4.57;;;2.25;;
71207;SDS011;58938;49.868;8.646;2023-05-10T09:46:48;5.00;;;1.90;;
71207;SDS011;58938;49.868;8.646;2023-05-10T09:49:14;6.40;;;2.30;;
71207;SDS011;58938;49.868;8.646;2023-05-10T09:51:40;5.95;;;3.13;;
71207;SDS011;58938;49.868;8.646;2023-05-10T09:56:36;6.35;;;2.55;;
71207;SDS011;58938;49.868;8.646;2023-05-10T09:59:04;4.23;;;2.40;;
71207;SDS011;58938;49.868;8.646;2023-05-10T10:01:31;6.60;;;2.78;;
71207;SDS011;58938;49.868;8.646;2023-05-10T10:03:58;6.82;;;2.25;;
71207;SDS011;58938;49.868;8.646;2023-05-10T10:06:24;4.82;;;1.88;;
71207;SDS011;58938;49.868;8.646;2023-05-10T10:08:51;4.22;;;2.10;;
71207;SDS011;58938;49.868;8.646;2023-05-10T10:11:17;5.13;;;2.67;;
71207;SDS011;58938;49.868;8.646;2023-05-10T10:13:43;5.78;;;2.50;;
71207;SDS011;58938;49.868;8.646;2023-05-10T10:16:09;6.32;;;2.90;;
71207;SDS011;58938;49.868;8.646;2023-05-10T10:18:36;4.38;;;2.28;;
71207;SDS011;58938;49.868;8.646;2023-05-10T10:21:04;3.60;;;2.03;;
71207;SDS011;58938;49.868;8.646;2023-05-10T10:23:31;4.20;;;2.50;;
71207;SDS011;58938;49.868;8.646;2023-05-10T10:25:57;6.47;;;2.33;;
71207;SDS011;58938;49.868;8.646;2023-05-10T10:28:35;5.15;;;2.58;;
71207;SDS011;58938;49.868;8.646;2023-05-10T10:36:19;5.63;;;2.17;;
71207;SDS011;58938;49.868;8.646;2023-05-10T10:41:28;4.20;;;2.30;;
71207;SDS011;58938;49.868;8.646;2023-05-10T10:49:30;6.00;;;2.60;;
71207;SDS011;58938;49.868;8.646;2023-05-10T10:54:52;3.72;;;2.30;;
71207;SDS011;58938;49.868;8.646;2023-05-10T10:57:19;4.63;;;2.10;;
71207;SDS011;58938;49.868;8.646;2023-05-10T10:59:46;6.28;;;2.00;;
71207;SDS011;58938;49.868;8.646;2023-05-10T11:04:57;5.93;;;2.15;;
71207;SDS011;58938;49.868;8.646;2023-05-10T11:07:24;3.53;;;1.95;;
71207;SDS011;58938;49.868;8.646;2023-05-10T11:09:50;3.60;;;2.30;;
71207;SDS011;58938;49.868;8.646;2023-05-10T11:12:19;3.80;;;2.10;;
71207;SDS011;58938;49.868;8.646;2023-05-10T11:14:49;3.70;;;2.20;;
71207;SDS011;58938;49.868;8.646;2023-05-10T11:17:22;4.18;;;2.40;;
71207;SDS011;58938;49.868;8.646;2023-05-10T11:20:10;3.55;;;1.90;;
71207;SDS011;58938;49.868;8.646;2023-05-10T11:22:49;7.88;;;2.08;;
71207;SDS011;58938;49.868;8.646;2023-05-10T11:25:19;3.70;;;2.15;;
71207;SDS011;58938;49.868;8.646;2023-05-10T11:27:49;5.67;;;1.93;;
71207;SDS011;58938;49.868;8.646;2023-05-10T11:30:15;4.43;;;2.38;;
71207;SDS011;58938;49.868;8.646;2023-05-10T11:32:41;4.35;;;2.38;;
71207;SDS011;58938;49.868;8.646;2023-05-10T11:35:08;4.10;;;2.60;;
71207;SDS011;58938;49.868;8.646;2023-05-10T11:37:34;5.30;;;2.38;;
71207;SDS011;58938;49.868;8.646;2023-05-10T11:40:00;4.60;;;2.47;;
71207;SDS011;58938;49.868;8.646;2023-05-10T11:42:27;3.55;;;1.90;;
71207;SDS011;58938;49.868;8.646;2023-05-10T11:44:54;3.70;;;1.95;;
71207;SDS011;58938;49.868;8.646;2023-05-10T11:47:20;3.42;;;1.80;;
71207;SDS011;58938;49.868;8.646;2023-05-10T11:49:48;5.20;;;2.22;;
71207;SDS011;58938;49.868;8.646;2023-05-10T11:52:15;5.47;;;2.30;;
71207;SDS011;58938;49.868;8.646;2023-05-10T11:54:50;4.47;;;2.00;;
71207;SDS011;58938;49.868;8.646;2023-05-10T11:57:20;4.78;;;1.73;;
71207;SDS011;58938;49.868;8.646;2023-05-10T11:59:46;4.40;;;2.13;;
71207;SDS011;58938;49.868;8.646;2023-05-10T12:02:15;3.30;;;1.60;;
71207;SDS011;58938;49.868;8.646;2023-05-10T12:04:41;3.87;;;2.00;;
71207;SDS011;58938;49.868;8.646;2023-05-10T12:07:08;3.50;;;1.70;;
71207;SDS011;58938;49.868;8.646;2023-05-10T12:09:34;3.88;;;2.22;;
71207;SDS011;58938;49.868;8.646;2023-05-10T12:12:00;3.90;;;1.90;;
71207;SDS011;58938;49.868;8.646;2023-05-10T12:14:27;3.42;;;1.80;;
71207;SDS011;58938;49.868;8.646;2023-05-10T12:16:58;5.23;;;1.73;;
71207;SDS011;58938;49.868;8.646;2023-05-10T12:19:24;3.65;;;1.60;;
71207;SDS011;58938;49.868;8.646;2023-05-10T12:21:50;3.45;;;1.70;;
71207;SDS011;58938;49.868;8.646;2023-05-10T12:24:16;3.95;;;1.67;;
71207;SDS011;58938;49.868;8.646;2023-05-10T12:26:42;3.93;;;1.73;;
71207;SDS011;58938;49.868;8.646;2023-05-10T12:29:15;3.63;;;1.52;;
71207;SDS011;58938;49.868;8.646;2023-05-10T12:31:57;4.13;;;2.10;;
71207;SDS011;58938;49.868;8.646;2023-05-10T12:36:51;4.22;;;1.70;;
71207;SDS011;58938;49.868;8.646;2023-05-10T12:39:17;3.53;;;1.80;;
71207;SDS011;58938;49.868;8.646;2023-05-10T12:41:43;4.57;;;1.60;;
71207;SDS011;58938;49.868;8.646;2023-05-10T12:44:09;4.68;;;2.28;;
71207;SDS011;58938;49.868;8.646;2023-05-10T12:46:35;3.35;;;1.83;;
71207;SDS011;58938;49.868;8.646;2023-05-10T12:49:01;3.50;;;1.90;;
71207;SDS011;58938;49.868;8.646;2023-05-10T12:51:27;4.57;;;2.10;;
71207;SDS011;58938;49.868;8.646;2023-05-10T12:53:54;4.30;;;2.00;;
71207;SDS011;58938;49.868;8.646;2023-05-10T12:56:20;3.95;;;2.35;;
71207;SDS011;58938;49.868;8.646;2023-05-10T12:58:46;5.80;;;2.85;;
71207;SDS011;58938;49.868;8.646;2023-05-10T13:01:13;5.40;;;2.10;;
71207;SDS011;58938;49.868;8.646;2023-05-10T13:03:39;4.83;;;2.53;;
71207;SDS011;58938;49.868;8.646;2023-05-10T13:06:05;4.03;;;2.17;;
71207;SDS011;58938;49.868;8.646;2023-05-10T13:08:32;3.80;;;2.20;;
71207;SDS011;58938;49.868;8.646;2023-05-10T13:11:01;3.80;;;2.22;;
71207;SDS011;58938;49.868;8.646;2023-05-10T13:13:27;4.35;;;2.42;;
71207;SDS011;58938;49.868;8.646;2023-05-10T13:15:53;4.63;;;2.63;;
71207;SDS011;58938;49.868;8.646;2023-05-10T13:18:19;5.25;;;2.67;;
71207;SDS011;58938;49.868;8.646;2023-05-10T13:20:45;5.45;;;2.50;;
71207;SDS011;58938;49.868;8.646;2023-05-10T13:23:11;4.97;;;2.83;;
71207;SDS011;58938;49.868;8.646;2023-05-10T13:25:37;4.43;;;2.30;;
71207;SDS011;58938;49.868;8.646;2023-05-10T13:28:04;5.35;;;2.20;;
71207;SDS011;58938;49.868;8.646;2023-05-10T13:30:30;5.63;;;2.33;;
71207;SDS011;58938;49.868;8.646;2023-05-10T13:32:56;5.82;;;2.40;;
71207;SDS011;58938;49.868;8.646;2023-05-10T13:35:22;5.60;;;2.58;;
71207;SDS011;58938;49.868;8.646;2023-05-10T13:37:48;4.13;;;1.77;;
71207;SDS011;58938;49.868;8.646;2023-05-10T13:40:14;4.75;;;2.50;;
71207;SDS011;58938;49.868;8.646;2023-05-10T13:42:41;5.95;;;2.30;;
71207;SDS011;58938;49.868;8.646;2023-05-10T13:45:07;5.82;;;2.35;;
71207;SDS011;58938;49.868;8.646;2023-05-10T13:47:33;4.93;;;2.28;;
71207;SDS011;58938;49.868;8.646;2023-05-10T13:49:59;7.93;;;2.30;;
71207;SDS011;58938;49.868;8.646;2023-05-10T13:52:26;4.38;;;1.70;;
71207;SDS011;58938;49.868;8.646;2023-05-10T13:54:52;6.18;;;2.60;;
71207;SDS011;58938;49.868;8.646;2023-05-10T13:57:20;4.43;;;1.88;;
71207;SDS011;58938;49.868;8.646;2023-05-10T13:59:46;7.35;;;2.33;;
71207;SDS011;58938;49.868;8.646;2023-05-10T14:02:13;6.13;;;2.53;;
71207;SDS011;58938;49.868;8.646;2023-05-10T14:04:38;4.47;;;2.42;;
71207;SDS011;58938;49.868;8.646;2023-05-10T14:07:04;4.68;;;2.30;;
71207;SDS011;58938;49.868;8.646;2023-05-10T14:09:30;5.35;;;2.00;;
71207;SDS011;58938;49.868;8.646;2023-05-10T14:11:57;5.67;;;2.47;;
71207;SDS011;58938;49.868;8.646;2023-05-10T14:14:23;4.43;;;2.63;;
71207;SDS011;58938;49.868;8.646;2023-05-10T14:16:50;3.92;;;2.08;;
71207;SDS011;58938;49.868;8.646;2023-05-10T14:19:16;5.72;;;2.08;;
71207;SDS011;58938;49.868;8.646;2023-05-10T14:21:42;4.13;;;1.90;;
71207;SDS011;58938;49.868;8.646;2023-05-10T14:24:08;6.43;;;2.50;;
71207;SDS011;58938;49.868;8.646;2023-05-10T14:26:34;5.40;;;2.47;;
71207;SDS011;58938;49.868;8.646;2023-05-10T14:29:00;5.03;;;2.20;;
71207;SDS011;58938;49.868;8.646;2023-05-10T14:31:26;6.97;;;2.15;;
71207;SDS011;58938;49.868;8.646;2023-05-10T14:33:55;5.00;;;2.28;;
71207;SDS011;58938;49.868;8.646;2023-05-10T14:36:21;5.93;;;2.83;;
71207;SDS011;58938;49.868;8.646;2023-05-10T14:38:47;6.87;;;3.03;;
71207;SDS011;58938;49.868;8.646;2023-05-10T14:41:14;4.75;;;2.20;;
71207;SDS011;58938;49.868;8.646;2023-05-10T14:43:42;7.57;;;2.28;;
71207;SDS011;58938;49.868;8.646;2023-05-10T14:46:08;4.22;;;2.15;;
71207;SDS011;58938;49.868;8.646;2023-05-10T14:48:34;6.43;;;2.10;;
71207;SDS011;58938;49.868;8.646;2023-05-10T14:51:01;5.32;;;2.10;;
71207;SDS011;58938;49.868;8.646;2023-05-10T14:53:27;4.93;;;2.10;;
71207;SDS011;58938;49.868;8.646;2023-05-10T14:55:53;5.85;;;2.42;;
71207;SDS011;58938;49.868;8.646;2023-05-10T14:58:19;5.30;;;2.00;;
71207;SDS011;58938;49.868;8.646;2023-05-10T15:00:45;4.50;;;2.00;;
71207;SDS011;58938;49.868;8.646;2023-05-10T15:03:11;4.45;;;1.92;;
71207;SDS011;58938;49.868;8.646;2023-05-10T15:05:37;6.00;;;2.53;;
71207;SDS011;58938;49.868;8.646;2023-05-10T15:08:03;5.03;;;1.95;;
71207;SDS011;58938;49.868;8.646;2023-05-10T15:10:30;6.55;;;2.03;;
71207;SDS011;58938;49.868;8.646;2023-05-10T15:12:57;5.63;;;2.03;;
71207;SDS011;58938;49.868;8.646;2023-05-10T15:15:27;5.25;;;2.13;;
71207;SDS011;58938;49.868;8.646;2023-05-10T15:17:54;4.25;;;1.70;;
71207;SDS011;58938;49.868;8.646;2023-05-10T15:20:20;7.35;;;1.65;;
71207;SDS011;58938;49.868;8.646;2023-05-10T15:22:46;5.35;;;2.00;;